Time;durP1;ratioP1;P1;durP2;ratioP2;P2;SDS_P1;SDS_P2;PMS_P1;PMS_P2;Temp;Humidity;BMP_temperature;BMP_pressure;BME280_temperature;BME280_humidity;BME280_pressure;Samples;Min_cycle;Max_cycle;Signal;HPM_P1;HPM_P2
2021/03/13 00:00:24;;;;;;;15.13;11.75;;;;;;;1.25;81.16;100045.31;1731334;80;21203;-80
2021/03/13 00:02:58;;;;;;;17.45;12.07;;;;;;;1.27;81.14;100048.05;1734775;80;21272;-81
2021/03/13 00:05:38;;;;;;;16.32;12.58;;;;;;;1.27;81.14;100046.73;1739941;80;21159;-76
2021/03/13 00:08:07;;;;;;;18.15;12.78;;;;;;;1.27;81.13;100050.67;1741902;80;21936;-81
2021/03/13 00:10:35;;;;;;;19.12;13.30;;;;;;;1.26;81.13;100047.75;1739689;81;21466;-80
2021/03/13 00:13:04;;;;;;;17.80;12.30;;;;;;;1.27;81.14;100052.50;1715153;81;21180;-81
2021/03/13 00:15:33;;;;;;;15.68;11.60;;;;;;;1.27;81.14;100050.67;1687387;83;21639;-80
2021/03/13 00:18:02;;;;;;;18.20;12.47;;;;;;;1.28;81.14;100054.11;1745107;80;21263;-80
2021/03/13 00:20:33;;;;;;;18.07;12.58;;;;;;;1.29;81.13;100047.85;1718138;81;21413;-82
2021/03/13 00:23:01;;;;;;;18.87;13.10;;;;;;;1.28;81.11;100051.48;1740376;80;21260;-81
2021/03/13 00:25:29;;;;;;;17.55;12.35;;;;;;;1.28;81.14;100052.80;1738744;80;21189;-81
2021/03/13 00:27:57;;;;;;;19.50;13.58;;;;;;;1.30;81.18;100050.27;1708983;81;21247;-80
2021/03/13 00:30:29;;;;;;;19.07;13.38;;;;;;;1.29;81.11;100055.74;1740775;80;21825;-81
2021/03/13 00:33:04;;;;;;;16.87;12.37;;;;;;;1.09;81.27;100047.41;1741076;80;21531;-76
2021/03/13 00:35:32;;;;;;;18.48;12.47;;;;;;;1.09;81.27;100047.41;1739880;81;21813;-78
2021/03/13 00:38:02;;;;;;;18.25;12.28;;;;;;;1.05;81.27;100050.13;1720676;81;21676;-78
2021/03/13 00:40:31;;;;;;;18.62;13.00;;;;;;;1.04;81.35;100049.84;1719164;81;21192;-79
2021/03/13 00:42:59;;;;;;;16.67;12.13;;;;;;;1.02;81.41;100051.05;1735968;80;21180;-82
2021/03/13 00:45:27;;;;;;;16.40;12.37;;;;;;;;;;1746210;80;21737;-79
2021/03/13 00:48:01;;;;;;;15.80;12.20;;;;;;;1.07;81.58;100057.31;1730410;80;21196;-79
2021/03/13 00:50:31;;;;;;;16.00;11.88;;;;;;;1.11;81.63;100056.39;1717247;81;21201;-80
2021/03/13 00:52:59;;;;;;;18.10;13.32;;;;;;;1.14;81.64;100050.72;1717115;83;21195;-78
2021/03/13 00:55:28;;;;;;;17.85;13.13;;;;;;;1.19;81.69;100050.12;1743110;80;21269;-77
2021/03/13 00:57:58;;;;;;;19.73;13.65;;;;;;;1.24;81.69;100047.66;1722575;81;21408;-79
2021/03/13 01:00:28;;;;;;;20.23;14.78;;;;;;;1.25;81.68;100039.57;1710206;81;21274;-79
2021/03/13 01:02:56;;;;;;;18.62;14.00;;;;;;;1.27;81.67;100038.03;1709033;82;21195;-82
2021/03/13 01:05:25;;;;;;;20.23;14.47;;;;;;;1.29;81.70;100043.91;1717462;81;21267;-79
2021/03/13 01:07:54;;;;;;;20.02;14.13;;;;;;;1.32;81.74;100048.24;1732612;80;21191;-81
2021/03/13 01:10:36;;;;;;;23.05;15.38;;;;;;;1.40;81.78;100044.55;1735743;80;21905;-81
2021/03/13 01:13:05;;;;;;;23.20;16.45;;;;;;;1.43;81.75;100042.82;1713063;82;21200;-80
2021/03/13 01:15:35;;;;;;;21.77;15.75;;;;;;;1.46;81.74;100048.18;1672703;84;21319;-79
2021/03/13 01:18:04;;;;;;;20.43;15.08;;;;;;;1.52;81.73;100053.41;1721099;81;21204;-79
2021/03/13 01:20:34;;;;;;;23.32;16.48;;;;;;;1.56;81.70;100054.60;1740014;80;21212;-79
2021/03/13 01:23:03;;;;;;;24.82;17.35;;;;;;;1.57;81.63;100050.94;1744504;80;22335;-79
2021/03/13 01:25:32;;;;;;;24.95;17.07;;;;;;;1.61;81.66;100053.48;1718463;81;21204;-78
2021/03/13 01:28:00;;;;;;;23.32;17.52;;;;;;;1.63;81.61;100054.57;1744966;82;21513;-78
2021/03/13 01:30:29;;;;;;;23.27;17.42;;;;;;;1.67;81.62;100064.17;1727389;82;21204;-79
2021/03/13 01:32:58;;;;;;;23.22;17.75;;;;;;;1.67;81.58;100065.48;1757016;80;21179;-78
2021/03/13 01:35:26;;;;;;;24.07;17.87;;;;;;;1.66;81.58;100079.16;1750714;80;21378;-78
2021/03/13 01:37:55;;;;;;;22.37;17.45;;;;;;;1.62;81.59;100080.09;1757124;80;21140;-79
2021/03/13 01:40:24;;;;;;;25.17;18.32;;;;;;;1.61;81.66;100085.06;1755245;79;21196;-78
2021/03/13 01:42:53;;;;;;;23.20;16.27;;;;;;;1.61;81.71;100090.33;1763766;79;21061;-79
2021/03/13 01:45:23;;;;;;;23.22;17.73;;;;;;;1.61;81.77;100094.28;1755942;80;21188;-80
2021/03/13 01:47:55;;;;;;;;;;;;;;;1.60;81.81;100107.12;1723883;81;22336;-76
2021/03/13 01:50:27;;;;;;;24.98;18.27;;;;;;;1.56;81.93;100099.34;1687525;83;20310;-77
2021/03/13 01:52:55;;;;;;;24.00;17.48;;;;;;;1.58;82.02;100101.28;1748811;80;21141;-80
2021/03/13 01:55:25;;;;;;;27.55;19.02;;;;;;;1.63;82.09;100112.48;1762989;79;21125;-83
2021/03/13 01:57:56;;;;;;;25.35;18.92;;;;;;;1.66;82.16;100115.21;1719930;81;21231;-82
2021/03/13 02:00:29;;;;;;;23.87;19.43;;;;;;;1.73;82.14;100111.52;1621540;80;9999725;-78
2021/03/13 02:02:58;;;;;;;23.38;17.80;;;;;;;1.78;82.12;100112.23;1716692;82;21183;-78
2021/03/13 02:05:36;;;;;;;21.42;15.40;;;;;;;1.81;82.09;100114.41;1688993;82;21235;-78
2021/03/13 02:08:40;;;;;;;24.20;18.48;;;;;;;1.86;82.07;100118.05;1737052;82;21168;-79
2021/03/13 02:11:35;;;;;;;24.35;18.40;;;;;;;1.85;82.01;100125.66;1684810;83;22004;-78
2021/03/13 02:14:18;;;;;;;24.07;18.63;;;;;;;1.94;82.06;100121.45;1785690;79;23751;-76
2021/03/13 02:17:20;;;;;;;24.10;19.20;;;;;;;1.92;82.06;100124.30;1737121;80;21873;-76
2021/03/13 02:20:16;;;;;;;25.10;19.12;;;;;;;1.97;82.02;100122.34;1765680;79;22278;-74
2021/03/13 02:22:45;;;;;;;22.77;18.52;;;;;;;2.03;81.94;100128.89;1744326;79;21180;-74
2021/03/13 02:26:01;;;;;;;24.10;18.87;;;;;;;2.07;81.87;100129.27;1736487;79;21175;-75
2021/03/13 02:28:45;;;;;;;26.42;19.65;;;;;;;2.09;81.83;100130.69;1750155;79;21209;-75
2021/03/13 02:31:13;;;;;;;26.20;20.30;;;;;;;2.11;81.80;100133.92;1752623;81;21187;-75
2021/03/13 02:33:41;;;;;;;24.55;19.73;;;;;;;2.14;81.76;100133.19;1744110;80;22695;-75
2021/03/13 02:36:28;;;;;;;26.27;20.07;;;;;;;2.20;81.70;100133.66;1814681;76;22701;-77
2021/03/13 02:39:05;;;;;;;24.23;19.40;;;;;;;2.17;81.67;100143.30;1795754;79;21175;-77
2021/03/13 02:41:40;;;;;;;26.10;19.40;;;;;;;2.18;81.63;100141.80;1795148;77;21729;-73
2021/03/13 02:44:11;;;;;;;25.08;19.40;;;;;;;2.21;81.56;100143.20;1798794;77;21164;-76
2021/03/13 02:46:45;;;;;;;25.68;19.35;;;;;;;2.24;81.53;100145.41;1795924;78;26801;-75
2021/03/13 02:49:13;;;;;;;25.12;19.02;;;;;;;2.24;81.49;100143.58;1767336;79;21816;-75
2021/03/13 02:51:43;;;;;;;25.77;18.95;;;;;;;2.24;81.36;100146.73;1777536;79;21182;-75
2021/03/13 02:54:12;;;;;;;24.40;19.75;;;;;;;2.23;81.33;100137.19;1771135;79;21373;-75
2021/03/13 02:56:43;;;;;;;25.05;19.30;;;;;;;2.25;81.34;100137.80;1800532;77;21167;-76
2021/03/13 02:59:14;;;;;;;24.65;18.75;;;;;;;2.28;81.25;100137.38;1792366;79;21179;-75
2021/03/13 03:01:44;;;;;;;25.97;20.20;;;;;;;2.29;81.19;100137.15;1787616;79;21158;-75
2021/03/13 03:04:12;;;;;;;25.40;19.12;;;;;;;2.23;81.07;100141.95;1810413;78;21102;-74
2021/03/13 03:06:44;;;;;;;24.90;19.65;;;;;;;2.17;81.22;100141.47;1801455;77;21370;-75
2021/03/13 03:09:11;;;;;;;25.05;19.40;;;;;;;2.15;81.29;100140.89;1798309;77;21752;-76
2021/03/13 03:11:42;;;;;;;24.07;18.05;;;;;;;2.13;81.28;100142.13;1793008;78;21135;-76
2021/03/13 03:14:16;;;;;;;25.00;19.60;;;;;;;2.08;81.24;100136.98;1763449;79;21796;-76
2021/03/13 03:16:47;;;;;;;23.42;19.15;;;;;;;2.02;81.24;100143.60;1791362;79;21205;-75
2021/03/13 03:19:17;;;;;;;23.77;19.32;;;;;;;1.98;81.25;100150.31;1791525;79;22694;-76
2021/03/13 03:21:47;;;;;;;25.75;20.00;;;;;;;1.94;81.21;100157.84;1800597;78;21162;-78
2021/03/13 03:24:16;;;;;;;26.35;19.85;;;;;;;1.88;81.32;100148.13;1798712;79;21095;-76
2021/03/13 03:26:44;;;;;;;24.67;19.10;;;;;;;1.86;81.40;100154.11;1769630;79;21167;-77
2021/03/13 03:29:12;;;;;;;25.50;18.42;;;;;;;1.84;81.44;100153.02;1796966;77;21123;-77
2021/03/13 03:31:40;;;;;;;23.50;18.77;;;;;;;1.87;81.48;100145.18;1793345;79;22294;-78
2021/03/13 03:34:09;;;;;;;23.67;18.87;;;;;;;1.90;81.46;100150.03;1797956;78;21143;-77
2021/03/13 03:36:37;;;;;;;24.82;19.23;;;;;;;1.92;81.45;100148.52;1770043;79;21272;-77
2021/03/13 03:39:06;;;;;;;26.85;20.62;;;;;;;1.92;81.37;100147.20;1801331;79;22591;-76
2021/03/13 03:41:36;;;;;;;26.95;19.90;;;;;;;1.90;81.21;100150.55;1806746;79;21234;-77
2021/03/13 03:44:19;;;;;;;24.87;19.02;;;;;;;1.82;81.08;100157.67;1806383;79;21272;-75
2021/03/13 03:46:51;;;;;;;23.15;18.17;;;;;;;1.77;81.05;100154.03;1801292;78;21559;-76
2021/03/13 03:49:20;;;;;;;28.15;19.30;;;;;;;1.72;81.11;100158.63;1792183;79;21147;-76
2021/03/13 03:51:49;;;;;;;27.52;20.95;;;;;;;1.67;81.14;100161.06;1806371;79;21200;-75
2021/03/13 03:54:18;;;;;;;28.45;21.10;;;;;;;1.63;81.20;100152.77;1792470;79;21674;-77
2021/03/13 03:56:46;;;;;;;28.12;21.12;;;;;;;1.61;81.25;100148.24;1795924;79;21216;-77
2021/03/13 03:59:17;;;;;;;27.32;20.45;;;;;;;1.55;81.18;100144.31;1801267;77;21146;-78
2021/03/13 04:01:51;;;;;;;25.00;18.60;;;;;;;1.49;81.15;100151.21;1803006;79;21163;-78
2021/03/13 04:04:21;;;;;;;26.77;20.27;;;;;;;1.36;81.19;100163.89;1799322;79;21190;-78
2021/03/13 04:06:49;;;;;;;27.67;20.80;;;;;;;1.24;81.38;100176.56;1801655;79;21429;-78
2021/03/13 04:09:20;;;;;;;29.95;21.60;;;;;;;1.11;81.79;100185.27;1798492;79;21705;-77
2021/03/13 04:11:48;;;;;;;31.95;22.27;;;;;;;1.04;82.27;100186.59;1790868;79;21140;-77
2021/03/13 04:14:16;;;;;;;28.12;21.42;;;;;;;1.03;82.67;100186.30;1785228;79;21166;-78
2021/03/13 06:46:59;;;;;;;22.63;16.43;;;;;;;4.50;84.84;100334.75;1832598;77;22763;-74
2021/03/13 06:49:27;;;;;;;22.42;16.57;;;;;;;4.66;84.49;100342.88;1834229;76;21141;-74
2021/03/13 06:51:55;;;;;;;26.37;17.98;;;;;;;4.92;84.20;100335.11;1826323;77;21143;-74
2021/03/13 06:54:23;;;;;;;24.72;17.45;;;;;;;5.14;83.46;100331.97;1805706;78;20931;-74
2021/03/13 06:56:57;;;;;;;22.17;16.12;;;;;;;5.27;82.84;100329.11;1799382;77;21072;-73
2021/03/13 06:59:35;;;;;;;23.85;16.57;;;;;;;5.31;81.76;100337.41;1794386;79;21140;-73
2021/03/13 07:02:09;;;;;;;23.73;17.02;;;;;;;5.20;80.68;100336.36;1812916;78;21136;-73
2021/03/13 07:04:43;;;;;;;23.27;16.77;;;;;;;5.11;79.95;100335.86;1818591;78;21208;-73
2021/03/13 07:07:16;;;;;;;20.70;15.78;;;;;;;5.15;79.77;100329.59;1813848;78;21128;-73
2021/03/13 07:09:53;;;;;;;21.82;16.45;;;;;;;5.34;79.55;100323.19;1800190;78;21555;-72
2021/03/13 07:12:26;;;;;;;21.17;15.80;;;;;;;5.53;78.90;100321.79;1811850;78;21148;-73
2021/03/13 07:14:56;;;;;;;20.05;15.55;;;;;;;5.54;78.15;100323.39;1835364;76;21219;-72
2021/03/13 07:17:24;;;;;;;20.62;15.58;;;;;;;5.58;77.43;100332.48;1832094;76;21360;-72
2021/03/13 07:19:53;;;;;;;22.48;17.50;;;;;;;5.54;77.02;100328.69;1783492;78;21128;-71
2021/03/13 07:22:22;;;;;;;21.02;15.65;;;;;;;5.51;76.41;100322.52;1820701;78;22149;-72
2021/03/13 07:24:50;;;;;;;21.90;15.83;;;;;;;5.54;76.37;100327.37;1825867;78;23059;-72
2021/03/13 07:27:18;;;;;;;20.08;14.90;;;;;;;5.70;76.24;100325.89;1811709;78;21167;-71
2021/03/13 07:29:52;;;;;;;21.42;15.63;;;;;;;5.87;75.71;100323.62;1813123;78;21119;-71
2021/03/13 07:32:22;;;;;;;20.72;15.05;;;;;;;5.95;75.40;100323.81;1824043;78;21560;-71
2021/03/13 07:34:50;;;;;;;18.75;14.55;;;;;;;6.10;75.33;100321.50;1808595;78;21134;-71
2021/03/13 07:37:18;;;;;;;20.70;16.12;;;;;;;6.32;74.87;100324.35;1785607;77;21164;-71
2021/03/13 07:39:48;;;;;;;19.17;14.95;;;;;;;6.44;74.40;100324.83;1783710;78;21199;-71
2021/03/13 07:42:19;;;;;;;15.95;12.78;;;;;;;6.57;74.13;100322.70;1815798;78;21401;-71
2021/03/13 07:44:48;;;;;;;18.62;15.13;;;;;;;6.74;73.65;100317.45;1823210;78;21080;-71
2021/03/13 07:47:19;;;;;;;20.32;15.15;;;;;;;6.96;73.47;100322.09;1820570;77;21217;-71
2021/03/13 07:49:49;;;;;;;19.25;14.45;;;;;;;7.24;73.20;100323.92;1810193;77;21689;-70
2021/03/13 07:52:18;;;;;;;18.98;14.63;;;;;;;7.54;72.70;100321.48;1797787;79;21187;-71
2021/03/13 07:54:50;;;;;;;18.12;14.40;;;;;;;7.77;71.86;100320.48;1818418;77;21644;-71
2021/03/13 07:57:19;;;;;;;19.82;15.40;;;;;;;7.90;71.06;100324.94;1790205;79;21195;-71
2021/03/13 07:59:52;;;;;;;18.35;14.58;;;;;;;8.06;70.58;100324.63;1812065;78;21206;-70
2021/03/13 08:02:35;;;;;;;18.60;14.28;;;;;;;8.25;70.12;100321.13;1814980;78;21256;-70
2021/03/13 08:05:16;;;;;;;16.30;13.03;;;;;;;8.51;69.68;100319.61;1817494;78;21258;-71
2021/03/13 08:07:55;;;;;;;15.60;12.63;;;;;;;8.76;68.74;100316.96;1812883;78;21356;-71
2021/03/13 08:10:52;;;;;;;13.48;10.68;;;;;;;8.90;67.40;100318.16;1811800;78;21211;-70
2021/03/13 08:13:32;;;;;;;15.68;12.80;;;;;;;8.92;65.17;100322.72;1814047;78;21179;-70
2021/03/13 08:16:08;;;;;;;14.83;12.68;;;;;;;8.60;63.71;100324.77;1819015;78;21605;-70
2021/03/13 08:18:58;;;;;;;17.35;13.15;;;;;;;8.27;64.47;100323.55;1808771;78;21187;-71
2021/03/13 08:21:40;;;;;;;14.18;11.18;;;;;;;8.19;64.83;100324.27;1816400;78;22115;-70
2021/03/13 08:24:10;;;;;;;15.38;11.63;;;;;;;8.05;64.67;100324.32;1818691;78;21169;-70
2021/03/13 08:26:53;;;;;;;15.10;12.28;;;;;;;7.91;64.84;100325.73;1787141;78;21001;-70
2021/03/13 08:29:20;;;;;;;;;;;;;;;7.77;64.58;100325.80;1815570;78;21273;-71
2021/03/13 08:31:48;;;;;;;16.82;13.38;;;;;;;7.54;64.62;100325.46;1786969;78;20232;-70
2021/03/13 08:34:25;;;;;;;16.23;12.60;;;;;;;7.23;65.06;100323.62;1820452;77;21758;-71
2021/03/13 08:36:53;;;;;;;14.58;12.45;;;;;;;7.15;65.50;100324.83;1795672;78;21174;-71
2021/03/13 08:39:23;;;;;;;14.70;12.18;;;;;;;7.18;65.82;100330.99;1809235;78;21108;-71
2021/03/13 08:41:53;;;;;;;16.95;13.53;;;;;;;7.23;66.05;100328.94;1822819;77;21148;-71
2021/03/13 08:44:36;;;;;;;15.53;12.25;;;;;;;7.32;66.28;100327.50;1825052;78;21168;-71
2021/03/13 08:47:10;;;;;;;15.10;11.63;;;;;;;7.53;66.47;100321.97;1816532;78;21376;-69
2021/03/13 08:49:50;;;;;;;15.35;11.83;;;;;;;7.75;66.09;100324.17;1815696;78;21793;-70
2021/03/13 08:52:22;;;;;;;13.98;11.03;;;;;;;7.91;65.57;100328.39;1812096;78;21191;-71
2021/03/13 08:54:51;;;;;;;15.53;12.95;;;;;;;8.07;65.17;100334.73;1822100;78;21143;-71
2021/03/13 08:57:28;;;;;;;13.75;12.25;;;;;;;7.96;63.88;100332.44;1820148;77;21225;-71
2021/03/13 09:00:00;;;;;;;15.58;12.53;;;;;;;7.75;64.34;100334.01;1792419;79;21362;-71
2021/03/13 09:02:38;;;;;;;15.55;12.75;;;;;;;7.81;64.70;100330.38;1811195;78;21187;-71
2021/03/13 09:05:10;;;;;;;16.60;12.82;;;;;;;7.95;64.44;100336.16;1818910;78;21670;-71
2021/03/13 09:07:40;;;;;;;15.90;12.35;;;;;;;7.91;63.70;100340.36;1819236;77;21557;-71
2021/03/13 09:10:10;;;;;;;14.68;12.45;;;;;;;7.81;63.97;100340.22;1815046;77;21144;-70
2021/03/13 09:12:39;;;;;;;15.93;13.55;;;;;;;7.80;64.01;100345.23;1807625;78;21352;-70
2021/03/13 09:15:09;;;;;;;16.27;13.28;;;;;;;7.71;63.89;100347.52;1812728;78;21096;-71
2021/03/13 09:17:37;;;;;;;17.15;13.88;;;;;;;7.62;63.82;100342.31;1825037;78;21199;-71
2021/03/13 09:20:14;;;;;;;15.80;13.35;;;;;;;7.55;63.85;100349.13;1814872;78;21128;-70
2021/03/13 09:22:44;;;;;;;19.02;14.98;;;;;;;7.52;64.18;100349.08;1821152;78;21548;-70
2021/03/13 09:25:20;;;;;;;16.07;13.10;;;;;;;7.57;64.26;100349.70;1820312;77;21413;-70
2021/03/13 09:27:50;;;;;;;18.70;15.15;;;;;;;7.68;64.25;100344.81;1790908;78;21171;-71
2021/03/13 09:30:22;;;;;;;18.10;14.43;;;;;;;7.67;63.69;100346.40;1809555;78;21180;-71
2021/03/13 09:32:51;;;;;;;15.63;13.18;;;;;;;7.61;63.96;100346.83;1813127;78;21128;-69
2021/03/13 09:35:22;;;;;;;16.62;13.45;;;;;;;7.59;64.02;100347.59;1805046;77;21177;-70
2021/03/13 09:37:51;;;;;;;18.82;13.98;;;;;;;7.66;63.93;100346.89;1801434;77;22071;-70
2021/03/13 09:40:21;;;;;;;18.35;15.00;;;;;;;7.71;63.98;100346.98;1800502;77;21136;-71
2021/03/13 09:42:50;;;;;;;16.95;14.40;;;;;;;7.77;63.81;100345.75;1800227;78;21643;-70
2021/03/13 09:45:20;;;;;;;17.90;14.18;;;;;;;7.77;63.41;100349.73;1806917;78;21216;-71
2021/03/13 09:47:56;;;;;;;17.70;14.65;;;;;;;7.69;63.38;100354.39;1823768;77;21132;-70
2021/03/13 09:50:34;;;;;;;18.45;14.50;;;;;;;7.63;63.53;100352.69;1797101;79;21367;-69
2021/03/13 09:53:06;;;;;;;18.05;14.33;;;;;;;7.72;63.77;100347.26;1818057;78;21243;-70
2021/03/13 09:55:35;;;;;;;18.80;15.80;;;;;;;7.88;63.60;100350.16;1829477;78;21064;-70
2021/03/13 09:58:04;;;;;;;18.20;14.85;;;;;;;7.98;63.67;100351.09;1820198;77;21319;-70
2021/03/13 10:00:42;;;;;;;18.82;15.75;;;;;;;8.16;63.58;100349.20;1848162;76;21210;-71
2021/03/13 10:03:16;;;;;;;19.67;16.52;;;;;;;8.28;63.26;100342.45;1843425;76;21568;-70
2021/03/13 10:05:55;;;;;;;18.42;13.32;;;;;;;8.43;63.06;100344.01;1844986;76;21159;-70
2021/03/13 10:08:36;;;;;;;17.82;14.43;;;;;;;8.58;62.64;100348.70;1855737;77;21488;-71
2021/03/13 10:11:04;;;;;;;18.98;15.00;;;;;;;8.72;62.60;100347.78;1803378;77;21132;-71
2021/03/13 10:13:33;;;;;;;19.60;15.43;;;;;;;8.95;62.20;100346.19;1800375;79;21108;-71
2021/03/13 10:16:02;;;;;;;17.85;14.70;;;;;;;9.02;61.51;100338.80;1821032;78;21437;-71
2021/03/13 10:18:38;;;;;;;17.47;13.53;;;;;;;9.07;60.98;100338.83;1801393;78;21133;-71
2021/03/13 10:21:06;;;;;;;18.17;14.33;;;;;;;9.04;60.36;100342.00;1804391;78;21442;-71
2021/03/13 10:23:37;;;;;;;17.02;13.95;;;;;;;8.95;60.34;100346.19;1833408;78;21471;-71
2021/03/13 10:26:07;;;;;;;18.27;15.30;;;;;;;8.86;60.41;100344.50;1823315;78;21202;-71
2021/03/13 10:28:37;;;;;;;19.83;15.57;;;;;;;8.87;60.53;100349.29;1845621;77;22350;-71
2021/03/13 10:31:16;;;;;;;21.10;16.37;;;;;;;8.89;60.41;100339.20;1815440;77;21883;-71
2021/03/13 10:33:45;;;;;;;18.95;16.50;;;;;;;8.89;60.00;100347.19;1816792;78;21210;-71
2021/03/13 10:36:15;;;;;;;18.70;15.20;;;;;;;8.80;59.97;100343.36;1809150;78;21049;-71
2021/03/13 10:38:51;;;;;;;18.97;16.17;;;;;;;8.73;60.27;100344.09;1806751;78;21663;-71
2021/03/13 10:41:23;;;;;;;20.43;16.27;;;;;;;8.62;60.14;100346.64;1814918;78;21657;-72
2021/03/13 10:43:54;;;;;;;22.93;17.85;;;;;;;8.37;60.09;100342.30;1812519;78;21849;-70
2021/03/13 10:46:26;;;;;;;17.85;14.30;;;;;;;8.15;60.58;100345.73;1822467;77;21133;-72
2021/03/13 10:49:00;;;;;;;19.42;16.20;;;;;;;8.06;61.31;100347.23;1797762;78;21132;-71
2021/03/13 10:51:42;;;;;;;22.20;17.40;;;;;;;8.07;61.64;100341.38;1822488;78;21614;-70
2021/03/13 10:54:23;;;;;;;;;;;;;;;8.08;61.69;100341.66;1808159;78;21356;-72
2021/03/13 10:56:51;;;;;;;21.70;17.20;;;;;;;8.04;62.05;100340.02;1821682;78;20291;-72
2021/03/13 10:59:33;;;;;;;21.77;16.42;;;;;;;8.03;62.32;100337.58;1812924;77;21221;-73
2021/03/13 11:02:01;;;;;;;23.12;17.32;;;;;;;8.08;62.50;100331.02;1784968;78;21605;-72
2021/03/13 11:04:29;;;;;;;22.52;17.10;;;;;;;8.16;62.48;100331.41;1805706;78;21101;-73
2021/03/13 11:06:59;;;;;;;22.02;17.67;;;;;;;8.21;62.57;100330.12;1825554;78;21943;-72
2021/03/13 11:09:29;;;;;;;25.00;18.60;;;;;;;8.30;62.35;100325.72;1819332;77;21197;-73
2021/03/13 11:11:58;;;;;;;23.92;18.12;;;;;;;8.28;61.99;100323.82;1792526;79;21048;-73
2021/03/13 11:14:26;;;;;;;25.48;18.65;;;;;;;8.19;62.24;100321.61;1803974;78;21144;-71
2021/03/13 11:16:55;;;;;;;23.22;17.82;;;;;;;8.19;62.41;100322.11;1825067;78;21155;-71
2021/03/13 11:19:25;;;;;;;24.70;19.15;;;;;;;8.21;62.37;100315.49;1829895;78;21367;-72
2021/03/13 11:21:54;;;;;;;26.87;20.85;;;;;;;8.22;62.43;100320.28;1821261;78;21517;-73
2021/03/13 11:24:23;;;;;;;27.42;20.72;;;;;;;8.23;62.58;100317.92;1806520;78;21180;-72
2021/03/13 11:26:52;;;;;;;25.92;19.45;;;;;;;8.30;62.69;100315.08;1813160;78;21171;-72
2021/03/13 11:29:20;;;;;;;26.05;19.10;;;;;;;8.37;62.68;100317.02;1821891;78;21129;-72
2021/03/13 11:31:50;;;;;;;26.15;19.17;;;;;;;8.43;62.54;100315.53;1770896;79;21371;-71
2021/03/13 11:34:18;;;;;;;28.52;20.30;;;;;;;8.51;62.37;100310.82;1827168;77;21647;-72
2021/03/13 11:36:46;;;;;;;25.70;19.05;;;;;;;8.52;62.41;100310.55;1832560;77;21206;-72
2021/03/13 11:39:14;;;;;;;27.40;19.62;;;;;;;8.57;62.56;100305.83;1819073;78;21061;-71
2021/03/13 11:41:44;;;;;;;21.97;17.20;;;;;;;8.63;62.47;100305.64;1815979;77;21074;-73
2021/03/13 11:44:12;;;;;;;22.60;18.00;;;;;;;8.67;62.25;100299.28;1809428;78;21338;-72
2021/03/13 11:46:41;;;;;;;24.98;18.65;;;;;;;8.71;61.98;100300.92;1832228;77;21064;-71
2021/03/13 11:49:09;;;;;;;20.88;16.65;;;;;;;8.68;61.95;100300.34;1823593;77;21045;-73
2021/03/13 11:51:37;;;;;;;22.22;17.30;;;;;;;8.75;61.95;100299.36;1827520;77;21176;-72
2021/03/13 11:54:06;;;;;;;20.60;16.65;;;;;;;8.81;61.76;100290.36;1812963;78;21051;-73
2021/03/13 11:56:34;;;;;;;21.40;16.82;;;;;;;8.85;61.46;100290.12;1810446;78;21451;-72
2021/03/13 11:59:03;;;;;;;21.90;17.10;;;;;;;8.85;61.17;100280.81;1832847;78;21119;-72
2021/03/13 12:01:31;;;;;;;23.95;18.57;;;;;;;8.71;60.68;100283.61;1816349;77;21144;-72
2021/03/13 12:03:59;;;;;;;23.62;17.90;;;;;;;8.64;61.04;100280.61;1799156;78;21251;-71
2021/03/13 12:06:27;;;;;;;23.30;17.80;;;;;;;8.66;61.21;100285.17;1821247;78;21651;-72
2021/03/13 12:09:00;;;;;;;21.80;16.95;;;;;;;8.70;61.15;100277.48;1825883;77;21390;-72
2021/03/13 12:11:28;;;;;;;22.90;17.45;;;;;;;8.74;61.18;100273.26;1819056;77;21197;-72
2021/03/13 12:13:58;;;;;;;23.42;19.10;;;;;;;8.81;61.22;100273.05;1821548;77;21132;-72
2021/03/13 12:16:26;;;;;;;23.55;18.05;;;;;;;8.86;61.05;100272.59;1821315;78;21136;-71
2021/03/13 12:18:56;;;;;;;22.80;18.30;;;;;;;8.91;61.05;100269.15;1825240;77;21230;-71
2021/03/13 12:21:24;;;;;;;23.30;17.02;;;;;;;8.97;60.64;100264.15;1821188;78;21210;-72
2021/03/13 12:23:53;;;;;;;22.22;17.10;;;;;;;9.00;60.66;100267.64;1811786;78;21207;-72
2021/03/13 12:26:21;;;;;;;22.13;18.27;;;;;;;8.99;60.23;100264.71;1821412;77;21261;-72
2021/03/13 12:28:49;;;;;;;22.00;16.85;;;;;;;9.02;60.36;100266.88;1796908;79;21195;-72
2021/03/13 12:31:19;;;;;;;22.35;17.00;;;;;;;9.07;60.25;100255.44;1814166;78;21190;-73
2021/03/13 12:33:48;;;;;;;21.35;16.95;;;;;;;9.08;59.63;100261.86;1824407;78;21440;-72
2021/03/13 12:36:16;;;;;;;21.25;16.27;;;;;;;9.09;59.73;100262.66;1791000;80;21081;-72
2021/03/13 12:38:45;;;;;;;19.57;15.83;;;;;;;9.08;59.23;100257.04;1790820;78;21140;-71
2021/03/13 12:41:13;;;;;;;20.52;15.75;;;;;;;9.07;59.01;100251.44;1792814;78;21064;-73
2021/03/13 12:43:42;;;;;;;20.30;16.35;;;;;;;9.02;58.98;100255.41;1815298;78;21250;-72
2021/03/13 12:46:16;;;;;;;19.73;15.78;;;;;;;9.05;59.19;100254.37;1823373;78;21377;-72
2021/03/13 12:48:46;;;;;;;22.70;16.80;;;;;;;9.10;59.26;100257.06;1820745;78;21133;-72
2021/03/13 12:51:15;;;;;;;22.17;16.80;;;;;;;9.15;59.13;100260.31;1849694;77;21121;-71
2021/03/13 12:53:44;;;;;;;20.92;17.37;;;;;;;9.23;59.36;100260.37;1812713;77;21073;-72
2021/03/13 12:56:13;;;;;;;19.90;15.72;;;;;;;9.32;59.26;100249.52;1828486;77;21480;-72
2021/03/13 12:58:41;;;;;;;19.85;15.80;;;;;;;9.40;59.08;100250.36;1825536;77;21433;-71
2021/03/13 13:01:10;;;;;;;18.55;14.83;;;;;;;9.44;58.76;100250.11;1807532;77;21057;-72
2021/03/13 13:03:38;;;;;;;20.55;15.70;;;;;;;9.46;58.56;100246.67;1842406;76;21155;-72
2021/03/13 13:06:06;;;;;;;20.15;15.45;;;;;;;9.51;58.40;100245.89;1822467;78;21520;-72
2021/03/13 13:08:36;;;;;;;19.57;16.07;;;;;;;9.53;58.33;100243.24;1823717;77;21046;-72
2021/03/13 13:11:04;;;;;;;19.37;15.78;;;;;;;9.55;58.27;100240.34;1855301;77;21601;-71
2021/03/13 13:13:32;;;;;;;20.92;16.12;;;;;;;9.55;57.96;100235.80;1846417;77;21065;-71
2021/03/13 13:16:00;;;;;;;18.73;14.80;;;;;;;9.54;58.12;100234.20;1848215;76;21152;-72
2021/03/13 13:18:30;;;;;;;20.45;16.00;;;;;;;9.56;58.13;100235.27;1848931;77;21113;-72
2021/03/13 13:20:58;;;;;;;20.77;16.05;;;;;;;9.59;57.77;100226.75;1812247;78;21145;-72
2021/03/13 13:23:26;;;;;;;18.55;15.68;;;;;;;9.60;57.84;100226.48;1805942;78;21376;-72
2021/03/13 13:25:55;;;;;;;20.45;15.72;;;;;;;9.60;57.56;100227.81;1811926;78;21552;-71
2021/03/13 13:28:24;;;;;;;19.50;15.08;;;;;;;9.60;57.42;100227.81;1823114;77;21537;-74
2021/03/13 13:30:52;;;;;;;20.55;15.05;;;;;;;9.63;57.45;100217.97;1800265;78;21053;-73
2021/03/13 13:33:20;;;;;;;17.45;14.00;;;;;;;9.68;57.51;100216.41;1812971;78;21163;-73
2021/03/13 13:35:50;;;;;;;16.87;13.98;;;;;;;9.72;57.35;100215.62;1818491;77;21561;-73
2021/03/13 13:38:18;;;;;;;16.60;13.08;;;;;;;9.76;57.20;100211.91;1819859;77;21070;-72
2021/03/13 13:40:47;;;;;;;19.15;14.10;;;;;;;9.78;56.96;100214.59;1813404;77;21116;-72
2021/03/13 13:43:18;;;;;;;17.75;13.72;;;;;;;9.77;56.67;100210.83;1819771;78;21175;-72
2021/03/13 13:45:46;;;;;;;16.67;12.98;;;;;;;9.76;56.52;100205.23;1813742;78;21136;-71
2021/03/13 13:48:14;;;;;;;16.27;13.28;;;;;;;9.69;56.56;100204.67;1821101;78;21266;-74
2021/03/13 13:50:44;;;;;;;17.12;12.65;;;;;;;9.58;56.41;100201.96;1825243;77;21064;-72
2021/03/13 13:53:12;;;;;;;16.00;12.80;;;;;;;9.51;56.37;100198.73;1816689;77;21159;-72
2021/03/13 13:55:44;;;;;;;19.42;15.40;;;;;;;9.46;56.49;100199.22;1827919;77;21160;-72
2021/03/13 13:58:12;;;;;;;29.90;24.95;;;;;;;9.40;56.65;100205.84;1774983;79;21072;-72
2021/03/13 14:00:41;;;;;;;21.33;17.42;;;;;;;9.38;56.73;100195.19;1816578;78;21374;-72
2021/03/13 14:03:12;;;;;;;17.95;14.50;;;;;;;9.42;56.91;100196.27;1806793;78;21218;-71
2021/03/13 14:05:41;;;;;;;19.82;15.18;;;;;;;9.51;56.62;100191.23;1821032;78;21135;-72
2021/03/13 14:08:09;;;;;;;17.90;14.38;;;;;;;9.58;56.41;100185.95;1822875;77;21666;-71